createdAt,value
2018-03-29T00:00:54.162Z,41.63
2018-03-29T00:03:21.619Z,48.67
2018-03-29T00:05:49.099Z,41.97
2018-03-29T00:08:16.553Z,46.83
2018-03-29T00:10:44.035Z,49.67
2018-03-29T00:13:11.490Z,51.40
2018-03-29T00:15:38.957Z,46.47
2018-03-29T00:18:06.410Z,40.80
2018-03-29T00:20:33.878Z,46.13
2018-03-29T00:23:01.334Z,44.67
2018-03-29T00:25:28.805Z,44.50
2018-03-29T00:27:56.268Z,47.07
2018-03-29T00:30:24.506Z,42.03
2018-03-29T00:32:51.975Z,41.97
2018-03-29T00:35:19.437Z,41.97
2018-03-29T00:37:46.881Z,45.43
2018-03-29T00:40:14.359Z,47.40
2018-03-29T00:42:41.822Z,50.53
2018-03-29T00:45:09.286Z,48.80
2018-03-29T00:47:37.516Z,49.47
2018-03-29T00:50:04.981Z,33.93
2018-03-29T00:52:32.437Z,33.63
2018-03-29T00:54:59.910Z,33.40
2018-03-29T00:57:27.368Z,37.90
2018-03-29T00:59:54.841Z,35.73
2018-03-29T01:02:23.092Z,42.27
2018-03-29T01:04:50.558Z,40.33
2018-03-29T01:07:18.015Z,36.33
2018-03-29T01:09:45.487Z,34.93
2018-03-29T01:12:12.948Z,31.43
2018-03-29T01:14:40.418Z,33.17
2018-03-29T01:17:07.894Z,29.50
2018-03-29T01:19:35.366Z,28.70
2018-03-29T01:22:02.838Z,25.73
2018-03-29T01:24:30.306Z,25.10
2018-03-29T01:26:57.772Z,27.20
2018-03-29T01:29:25.232Z,25.60
2018-03-29T01:31:52.699Z,25.07
2018-03-29T01:34:20.150Z,26.00
2018-03-29T01:36:47.627Z,23.10
2018-03-29T01:39:15.858Z,23.90
2018-03-29T01:41:43.326Z,23.77
2018-03-29T01:44:10.790Z,23.15
2018-03-29T01:46:38.266Z,23.92
2018-03-29T01:49:06.499Z,29.70
2018-03-29T01:51:33.981Z,29.20
2018-03-29T01:54:02.399Z,28.63
2018-03-29T01:56:29.874Z,35.90
2018-03-29T01:58:57.338Z,31.03
2018-03-29T02:01:24.818Z,34.80
2018-03-29T02:03:52.278Z,32.10
2018-03-29T02:06:19.750Z,29.63
2018-03-29T02:08:47.197Z,25.07
2018-03-29T02:11:14.690Z,27.60
2018-03-29T02:13:42.150Z,26.73
2018-03-29T02:16:09.621Z,62.37
2018-03-29T02:18:37.087Z,37.72
2018-03-29T02:21:04.570Z,71.63
2018-03-29T02:23:32.035Z,79.37
2018-03-29T02:25:59.534Z,170.73
2018-03-29T02:28:27.749Z,86.40
2018-03-29T02:30:55.235Z,25.58
2018-03-29T02:33:22.698Z,39.92
2018-03-29T02:35:50.174Z,27.30
2018-03-29T02:38:17.654Z,22.05
2018-03-29T02:40:45.123Z,25.57
2018-03-29T02:43:12.598Z,21.02
2018-03-29T02:45:40.082Z,18.83
2018-03-29T02:48:07.550Z,18.85
2018-03-29T02:50:35.871Z,18.05
2018-03-29T02:53:03.331Z,17.55
2018-03-29T02:55:30.831Z,15.90
2018-03-29T02:57:58.303Z,16.95
2018-03-29T03:00:26.547Z,16.35
2018-03-29T03:02:54.013Z,16.20
2018-03-29T03:05:21.486Z,15.77
2018-03-29T03:07:49.715Z,15.00
2018-03-29T03:10:17.184Z,15.02
2018-03-29T03:12:44.650Z,14.20
2018-03-29T03:15:12.118Z,13.88
2018-03-29T03:17:39.582Z,14.63
2018-03-29T03:20:07.054Z,13.82
2018-03-29T03:22:35.291Z,14.13
2018-03-29T03:25:02.798Z,12.98
2018-03-29T03:27:30.287Z,13.80
2018-03-29T03:29:57.792Z,12.93
2018-03-29T03:32:25.217Z,12.40
2018-03-29T03:34:52.689Z,12.85
2018-03-29T03:37:20.149Z,12.15
2018-03-29T03:39:47.618Z,12.75
2018-03-29T03:42:15.873Z,12.70
2018-03-29T03:44:43.331Z,13.88
2018-03-29T03:47:11.758Z,12.27
2018-03-29T03:49:39.222Z,11.52
2018-03-29T03:52:06.706Z,12.13
2018-03-29T03:54:34.161Z,12.48
2018-03-29T03:57:01.629Z,13.43
2018-03-29T03:59:29.082Z,12.45
2018-03-29T04:01:57.525Z,11.85
2018-03-29T04:04:24.978Z,11.82
2018-03-29T04:06:52.454Z,13.38
2018-03-29T04:09:19.911Z,13.60
2018-03-29T04:11:47.376Z,13.75
2018-03-29T04:14:15.834Z,14.75
2018-03-29T04:16:43.303Z,14.13
2018-03-29T04:19:10.760Z,14.85
2018-03-29T04:21:43.746Z,12.85
2018-03-29T04:24:11.210Z,14.35
2018-03-29T04:26:38.694Z,13.95
2018-03-29T04:29:06.147Z,13.40
2018-03-29T04:31:33.617Z,14.43
2018-03-29T04:34:02.030Z,15.70
2018-03-29T04:36:30.261Z,13.50
2018-03-29T04:38:57.726Z,14.30
2018-03-29T04:41:25.201Z,14.70
2018-03-29T04:43:52.656Z,14.57
2018-03-29T04:46:22.814Z,14.20
2018-03-29T04:48:50.284Z,13.60
2018-03-29T04:51:17.745Z,13.93
2018-03-29T04:53:45.213Z,12.50
2018-03-29T04:56:12.702Z,13.30
2018-03-29T04:58:40.148Z,15.20
2018-03-29T05:01:07.860Z,12.80
2018-03-29T05:03:35.313Z,13.90
2018-03-29T05:06:02.786Z,14.30
2018-03-29T05:08:30.242Z,14.43
2018-03-29T05:10:57.708Z,14.40
2018-03-29T05:13:25.170Z,14.52
2018-03-29T05:15:52.646Z,12.05
2018-03-29T05:18:20.102Z,13.50
2018-03-29T05:20:47.572Z,15.35
2018-03-29T05:23:15.041Z,14.63
2018-03-29T05:25:46.314Z,16.20
2018-03-29T05:28:13.769Z,13.90
2018-03-29T05:30:41.242Z,15.90
2018-03-29T05:33:08.727Z,15.17
2018-03-29T05:35:36.184Z,17.37
2018-03-29T05:38:03.662Z,16.03
2018-03-29T05:40:31.141Z,18.58
2018-03-29T05:42:58.610Z,18.50
2018-03-29T05:45:26.856Z,17.33
2018-03-29T05:47:54.334Z,16.90
2018-03-29T05:50:21.789Z,20.12
2018-03-29T05:53:08.704Z,20.77
2018-03-29T05:55:49.165Z,20.73
2018-03-29T05:58:17.409Z,21.40
2018-03-29T06:00:50.155Z,25.35
2018-03-29T06:03:17.640Z,23.87
2018-03-29T06:05:45.104Z,23.60
2018-03-29T06:08:12.585Z,23.55
2018-03-29T06:10:40.850Z,29.08
2018-03-29T06:13:08.341Z,24.87
2018-03-29T06:24:19.809Z,25.35
2018-03-29T06:26:47.277Z,22.73
2018-03-29T06:29:14.743Z,21.40
2018-03-29T06:31:42.230Z,24.33
2018-03-29T06:34:09.699Z,21.00
2018-03-29T06:36:37.943Z,18.77
2018-03-29T06:39:06.027Z,20.63
2018-03-29T06:41:33.507Z,21.37
2018-03-29T06:44:00.969Z,22.73
2018-03-29T06:46:29.913Z,24.47
2018-03-29T06:48:57.390Z,25.47
2018-03-29T06:51:24.854Z,23.30
2018-03-29T06:53:52.310Z,24.57
2018-03-29T06:56:19.794Z,24.77
2018-03-29T06:58:48.089Z,25.77
2018-03-29T07:01:15.568Z,25.00
2018-03-29T07:03:43.053Z,24.73
2018-03-29T07:06:10.563Z,25.00
2018-03-29T07:08:38.026Z,22.92
2018-03-29T07:11:05.491Z,25.67
2018-03-29T07:13:32.971Z,23.15
2018-03-29T07:16:00.437Z,23.00
2018-03-29T07:18:27.907Z,22.50
2018-03-29T07:20:55.370Z,21.50
2018-03-29T07:23:22.836Z,21.03
2018-03-29T07:25:50.298Z,19.77
2018-03-29T07:28:17.765Z,21.17
2018-03-29T07:30:45.999Z,19.27
2018-03-29T07:33:13.470Z,20.87
2018-03-29T07:35:40.935Z,22.93
2018-03-29T07:38:08.406Z,23.37
2018-03-29T07:40:38.976Z,20.17
2018-03-29T07:43:06.451Z,19.00
2018-03-29T07:45:33.907Z,17.50
2018-03-29T07:48:01.378Z,17.83
2018-03-29T07:50:28.830Z,17.90
2018-03-29T07:52:56.302Z,18.10
2018-03-29T07:55:23.762Z,16.87
2018-03-29T07:57:51.264Z,16.50
2018-03-29T08:00:18.683Z,18.43
2018-03-29T08:02:46.156Z,18.00
2018-03-29T08:05:13.601Z,20.50
2018-03-29T08:07:41.091Z,20.27
2018-03-29T08:10:09.301Z,19.80
2018-03-29T08:12:36.785Z,18.43
2018-03-29T08:15:04.366Z,17.73
2018-03-29T08:17:32.598Z,16.87
2018-03-29T08:20:00.055Z,17.17
2018-03-29T08:22:27.514Z,21.40
2018-03-29T08:24:54.969Z,22.80
2018-03-29T08:27:22.497Z,20.43
2018-03-29T08:29:49.894Z,21.77
2018-03-29T08:32:17.357Z,21.07
2018-03-29T08:34:44.831Z,21.17
2018-03-29T08:37:12.299Z,22.00
2018-03-29T08:39:40.522Z,19.90
2018-03-29T08:42:07.991Z,18.30
2018-03-29T08:44:35.445Z,19.93
2018-03-29T08:47:02.915Z,21.67
2018-03-29T08:49:30.379Z,21.93
2018-03-29T08:51:57.841Z,24.83
2018-03-29T08:54:25.301Z,24.30
2018-03-29T08:56:52.765Z,24.60
2018-03-29T08:59:20.226Z,25.50
2018-03-29T09:01:48.446Z,24.73
2018-03-29T09:04:15.913Z,25.03
2018-03-29T09:06:43.378Z,26.03
2018-03-29T09:09:10.841Z,29.40
2018-03-29T09:11:38.306Z,29.23
2018-03-29T09:14:05.771Z,26.90
2018-03-29T09:16:33.225Z,27.30
2018-03-29T09:19:00.743Z,25.70
2018-03-29T09:21:28.140Z,25.23
2018-03-29T09:23:55.614Z,26.03
2018-03-29T09:26:23.071Z,25.20
2018-03-29T09:28:50.551Z,22.80
2018-03-29T09:31:18.011Z,22.83
2018-03-29T09:33:46.239Z,23.53
2018-03-29T09:36:13.690Z,24.80
2018-03-29T09:38:41.157Z,27.63
2018-03-29T09:41:08.609Z,24.17
2018-03-29T09:43:36.071Z,26.70
2018-03-29T09:46:03.521Z,25.53
2018-03-29T09:48:30.990Z,25.17
2018-03-29T09:50:58.448Z,23.33
2018-03-29T09:53:25.906Z,24.80
2018-03-29T09:55:53.366Z,23.77
2018-03-29T09:58:20.857Z,22.97
2018-03-29T10:00:48.290Z,24.43
2018-03-29T10:03:15.753Z,22.00
2018-03-29T10:05:43.965Z,22.60
2018-03-29T10:08:11.439Z,22.30
2018-03-29T10:10:38.886Z,23.27
2018-03-29T10:13:06.349Z,23.80
2018-03-29T10:15:33.814Z,23.93
2018-03-29T10:18:01.311Z,23.27
2018-03-29T10:20:28.762Z,22.23
2018-03-29T10:22:56.231Z,24.30
2018-03-29T10:25:24.454Z,24.00
2018-03-29T10:27:51.978Z,24.83
2018-03-29T10:30:19.425Z,23.67
2018-03-29T10:32:46.907Z,24.57
2018-03-29T10:35:14.361Z,25.37
2018-03-29T10:37:41.834Z,26.40
2018-03-29T10:40:09.373Z,27.60
2018-03-29T10:42:36.858Z,28.47
2018-03-29T10:45:04.318Z,28.20
2018-03-29T10:47:31.772Z,27.93
2018-03-29T10:49:59.233Z,29.60
2018-03-29T10:52:26.731Z,30.17
2018-03-29T10:54:54.162Z,27.90
2018-03-29T10:57:21.615Z,28.33
2018-03-29T10:59:49.090Z,29.40
2018-03-29T11:02:16.532Z,27.60
2018-03-29T11:04:44.007Z,25.50
2018-03-29T11:07:11.458Z,23.67
2018-03-29T11:09:38.919Z,26.40
2018-03-29T11:12:06.365Z,25.67
2018-03-29T11:14:33.826Z,25.50
2018-03-29T11:17:01.282Z,27.33
2018-03-29T11:19:28.770Z,26.00
2018-03-29T11:21:56.983Z,25.50
2018-03-29T11:24:24.451Z,24.90
2018-03-29T11:26:51.906Z,25.13
2018-03-29T11:29:19.380Z,26.17
2018-03-29T11:31:46.846Z,27.90
2018-03-29T11:34:14.309Z,26.30
2018-03-29T11:36:41.765Z,25.80
2018-03-29T11:39:09.238Z,26.70
2018-03-29T11:41:37.684Z,24.53
2018-03-29T11:44:05.151Z,23.53
2018-03-29T11:46:32.618Z,26.20
2018-03-29T11:49:00.084Z,27.60
2018-03-29T11:51:28.309Z,23.77
2018-03-29T11:53:55.785Z,24.40
2018-03-29T11:56:23.242Z,23.40
2018-03-29T11:58:50.705Z,21.70
2018-03-29T12:01:18.171Z,22.90
2018-03-29T12:03:45.635Z,23.23
2018-03-29T12:06:13.090Z,24.43
2018-03-29T12:08:40.570Z,24.00
2018-03-29T12:11:08.794Z,23.20
2018-03-29T12:13:36.278Z,23.07
2018-03-29T12:16:03.752Z,26.03
2018-03-29T12:18:31.977Z,25.20
2018-03-29T12:26:45.642Z,23.50
2018-03-29T12:29:13.122Z,27.90
2018-03-29T12:31:44.838Z,26.97
2018-03-29T12:34:12.289Z,29.77
2018-03-29T12:36:39.754Z,29.60
2018-03-29T12:39:08.007Z,33.60
2018-03-29T12:41:36.238Z,37.07
2018-03-29T12:44:03.707Z,35.00
2018-03-29T12:46:31.182Z,40.63
2018-03-29T12:49:02.181Z,39.60
2018-03-29T12:51:29.643Z,29.33
2018-03-29T12:53:57.110Z,27.17
2018-03-29T12:56:36.376Z,22.70
2018-03-29T12:59:04.628Z,25.83
2018-03-29T13:01:32.142Z,25.70
2018-03-29T13:03:59.557Z,30.50
2018-03-29T13:06:27.030Z,30.80
2018-03-29T13:08:55.273Z,35.00
2018-03-29T13:11:22.741Z,33.63
2018-03-29T13:13:50.206Z,25.50
2018-03-29T13:16:18.450Z,22.37
2018-03-29T13:18:45.943Z,19.00
2018-03-29T13:21:13.382Z,17.53
2018-03-29T13:23:40.844Z,17.37
2018-03-29T13:26:08.307Z,14.97
2018-03-29T13:28:36.709Z,13.87
2018-03-29T13:31:04.942Z,13.50
2018-03-29T13:33:32.403Z,13.17
2018-03-29T13:35:59.874Z,13.90
2018-03-29T13:38:27.325Z,18.77
2018-03-29T13:40:54.807Z,21.40
2018-03-29T13:43:23.056Z,22.73
2018-03-29T13:45:50.503Z,23.67
2018-03-29T13:48:17.958Z,22.83
2018-03-29T13:50:45.447Z,20.97
2018-03-29T13:53:13.691Z,23.37
2018-03-29T13:55:41.175Z,24.30
2018-03-29T13:58:09.421Z,24.90
2018-03-29T14:00:36.885Z,24.53
2018-03-29T14:03:04.356Z,23.90
2018-03-29T14:05:31.823Z,22.80
2018-03-29T14:08:00.051Z,23.80
2018-03-29T14:10:27.527Z,24.70
2018-03-29T14:12:54.989Z,25.63
2018-03-29T14:15:22.458Z,24.87
2018-03-29T14:17:49.992Z,25.27
2018-03-29T14:20:18.171Z,23.90
2018-03-29T14:22:45.640Z,25.90
2018-03-29T14:25:13.111Z,24.33
2018-03-29T14:27:41.346Z,25.00
2018-03-29T14:30:08.815Z,23.80
2018-03-29T14:32:36.283Z,23.30
2018-03-29T14:35:03.762Z,25.27
2018-03-29T14:37:31.990Z,24.90
2018-03-29T14:39:59.465Z,25.13
2018-03-29T14:42:26.936Z,26.27
2018-03-29T14:44:55.330Z,26.23
2018-03-29T14:47:23.555Z,24.70
2018-03-29T14:49:52.942Z,25.17
2018-03-29T14:52:20.411Z,24.70
2018-03-29T14:54:47.895Z,24.57
2018-03-29T14:57:15.368Z,26.17
2018-03-29T14:59:42.859Z,23.90
2018-03-29T15:02:10.335Z,22.83
2018-03-29T15:04:37.799Z,23.40
2018-03-29T15:07:05.275Z,23.97
2018-03-29T15:09:39.457Z,24.87
2018-03-29T15:12:10.681Z,23.87
2018-03-29T15:14:57.782Z,25.23
2018-03-29T15:26:04.334Z,24.30
2018-03-29T15:28:31.799Z,23.67
2018-03-29T15:31:00.038Z,25.53
2018-03-29T15:33:27.490Z,23.60
2018-03-29T15:35:54.966Z,23.27
2018-03-29T15:38:22.418Z,24.30
2018-03-29T15:40:49.893Z,23.90
2018-03-29T15:43:17.351Z,23.77
2018-03-29T15:45:44.818Z,24.20
2018-03-29T15:48:13.043Z,23.47
2018-03-29T15:50:40.515Z,23.93
2018-03-29T15:53:07.982Z,22.90
2018-03-29T15:55:35.445Z,20.73
2018-03-29T15:58:02.912Z,21.07
2018-03-29T16:00:30.378Z,23.90
2018-03-29T16:02:58.606Z,22.23
2018-03-29T16:05:26.113Z,19.10
2018-03-29T16:07:53.555Z,20.93
2018-03-29T16:10:21.022Z,20.87
2018-03-29T16:12:49.254Z,20.77
2018-03-29T16:15:16.727Z,18.73
2018-03-29T16:17:44.191Z,20.63
2018-03-29T16:20:11.658Z,19.50
2018-03-29T16:22:39.114Z,18.27
2018-03-29T16:25:06.586Z,18.40
2018-03-29T16:27:34.815Z,19.03
2018-03-29T16:30:02.286Z,19.50
2018-03-29T16:32:29.746Z,20.77
2018-03-29T16:34:57.219Z,19.83
2018-03-29T16:37:24.675Z,18.53
2018-03-29T16:39:52.139Z,18.83
2018-03-29T16:42:19.595Z,19.13
2018-03-29T16:44:47.618Z,18.27
2018-03-29T16:47:25.791Z,17.17
2018-03-29T16:49:54.036Z,17.57
2018-03-29T16:52:21.494Z,18.33
2018-03-29T16:54:48.954Z,16.77
2018-03-29T16:57:16.419Z,17.40
2018-03-29T16:59:43.888Z,17.90
2018-03-29T17:02:11.464Z,17.27
2018-03-29T17:04:40.135Z,17.00
2018-03-29T17:07:08.440Z,17.53
2018-03-29T17:09:43.171Z,17.90
2018-03-29T17:12:12.614Z,16.33
2018-03-29T17:14:40.084Z,15.93
2018-03-29T17:17:07.543Z,16.83
2018-03-29T17:19:35.008Z,16.40
2018-03-29T17:22:02.489Z,16.00
2018-03-29T17:24:29.955Z,17.60
2018-03-29T17:26:57.441Z,17.30
2018-03-29T17:29:25.671Z,17.53
2018-03-29T17:31:53.139Z,17.50
2018-03-29T17:34:20.596Z,17.23
2018-03-29T17:36:48.070Z,17.80
2018-03-29T17:39:16.296Z,17.00
2018-03-29T17:41:43.763Z,18.23
2018-03-29T17:44:11.231Z,17.27
2018-03-29T17:46:38.698Z,17.80
2018-03-29T17:49:06.158Z,26.27
2018-03-29T17:51:33.631Z,18.70
2018-03-29T17:54:01.871Z,21.27
2018-03-29T17:56:29.339Z,18.63
2018-03-29T17:58:56.795Z,18.80
2018-03-29T18:01:24.268Z,18.40
2018-03-29T18:03:51.723Z,17.50
2018-03-29T18:06:19.195Z,19.20
2018-03-29T18:08:47.423Z,18.43
2018-03-29T18:11:14.901Z,18.63
2018-03-29T18:13:42.355Z,19.00
2018-03-29T18:16:09.835Z,19.97
2018-03-29T18:18:37.341Z,22.63
2018-03-29T18:21:04.824Z,21.40
2018-03-29T18:23:32.291Z,19.97
2018-03-29T18:25:59.754Z,20.10
2018-03-29T18:28:27.216Z,21.20
2018-03-29T18:30:54.687Z,20.63
2018-03-29T18:33:22.923Z,21.13
2018-03-29T18:35:50.390Z,22.70
2018-03-29T18:38:17.850Z,20.00
2018-03-29T18:40:45.328Z,20.73
2018-03-29T18:43:12.785Z,24.43
2018-03-29T18:45:40.408Z,19.13
2018-03-29T18:48:07.886Z,22.07
2018-03-29T18:50:35.364Z,21.80
2018-03-29T18:53:02.810Z,23.90
2018-03-29T18:55:30.288Z,21.20
2018-03-29T18:57:58.514Z,21.87
2018-03-29T19:00:26.002Z,22.70
2018-03-29T19:02:53.466Z,22.00
2018-03-29T19:05:20.919Z,22.83
2018-03-29T19:07:48.389Z,21.97
2018-03-29T19:10:16.609Z,23.50
2018-03-29T19:12:44.835Z,22.37
2018-03-29T19:15:13.076Z,22.73
2018-03-29T19:17:40.535Z,21.07
2018-03-29T19:20:07.991Z,22.43
2018-03-29T19:22:35.459Z,23.47
2018-03-29T19:25:02.928Z,20.60
2018-03-29T19:27:30.398Z,22.90
2018-03-29T19:29:58.628Z,22.33
2018-03-29T19:32:26.105Z,22.80
2018-03-29T19:34:53.559Z,22.60
2018-03-29T19:37:21.022Z,22.60
2018-03-29T19:39:48.493Z,21.77
2018-03-29T19:42:15.950Z,21.00
2018-03-29T19:44:43.405Z,20.40
2018-03-29T19:47:10.874Z,20.40
2018-03-29T19:49:39.100Z,21.10
2018-03-29T19:52:06.566Z,23.23
2018-03-29T19:54:34.046Z,28.07
2018-03-29T19:57:01.903Z,29.47
2018-03-29T19:59:29.366Z,29.43
2018-03-29T20:01:56.834Z,30.97
2018-03-29T20:04:25.072Z,29.10
2018-03-29T20:06:52.546Z,31.40
2018-03-29T20:09:20.008Z,33.07
2018-03-29T20:11:47.470Z,35.67
2018-03-29T20:14:14.950Z,36.70
2018-03-29T20:16:43.202Z,35.93
2018-03-29T20:19:10.673Z,30.13
2018-03-29T20:21:38.146Z,35.30
2018-03-29T20:24:06.380Z,37.17
2018-03-29T20:26:33.843Z,36.07
2018-03-29T20:29:01.303Z,31.60
2018-03-29T20:31:28.779Z,29.17
2018-03-29T20:33:56.234Z,29.97
2018-03-29T20:36:24.478Z,31.37
2018-03-29T20:38:51.936Z,30.40
2018-03-29T20:41:19.405Z,32.07
2018-03-29T20:43:46.882Z,34.80
2018-03-29T20:46:14.339Z,35.70
2018-03-29T20:48:41.815Z,35.57
2018-03-29T20:51:10.044Z,40.10
2018-03-29T20:53:37.510Z,40.47
2018-03-29T20:56:04.974Z,41.40
2018-03-29T20:58:32.450Z,44.07
2018-03-29T21:01:00.702Z,47.10
2018-03-29T21:03:28.181Z,42.53
2018-03-29T21:05:55.638Z,36.87
2018-03-29T21:08:23.874Z,36.47
2018-03-29T21:10:51.331Z,32.27
2018-03-29T21:13:18.798Z,41.50
2018-03-29T21:15:46.255Z,37.17
2018-03-29T21:18:13.723Z,33.97
2018-03-29T21:20:41.902Z,38.33
2018-03-29T21:23:09.371Z,45.03
2018-03-29T21:25:37.595Z,42.33
2018-03-29T21:28:05.058Z,41.00
2018-03-29T21:30:32.523Z,35.73
2018-03-29T21:33:00.008Z,31.80
2018-03-29T21:35:27.459Z,33.10
2018-03-29T21:37:54.927Z,34.90
2018-03-29T21:40:22.405Z,38.73
2018-03-29T21:42:49.887Z,35.43
2018-03-29T21:45:17.340Z,41.43
2018-03-29T21:47:44.823Z,40.28
2018-03-29T21:50:12.292Z,36.80
2018-03-29T21:52:39.766Z,45.10
2018-03-29T21:55:07.235Z,38.43
2018-03-29T21:57:35.483Z,39.93
2018-03-29T22:00:02.956Z,35.47
2018-03-29T22:02:31.210Z,32.03
2018-03-29T22:04:58.685Z,35.05
2018-03-29T22:07:26.171Z,37.05
2018-03-29T22:09:57.044Z,36.15
2018-03-29T22:12:24.519Z,37.65
2018-03-29T22:14:52.019Z,40.05
2018-03-29T22:17:19.470Z,32.35
2018-03-29T22:19:47.717Z,33.20
2018-03-29T22:22:15.179Z,29.75
2018-03-29T22:24:42.654Z,34.60
2018-03-29T22:27:10.904Z,36.63
2018-03-29T22:29:38.381Z,32.88
2018-03-29T22:32:05.875Z,42.10
2018-03-29T22:34:33.358Z,39.47
2018-03-29T22:37:00.833Z,37.25
2018-03-29T22:39:28.312Z,36.97
2018-03-29T22:41:55.807Z,39.45
2018-03-29T22:44:23.291Z,42.85
2018-03-29T22:46:50.770Z,36.28
2018-03-29T22:49:18.262Z,35.58
2018-03-29T22:51:45.736Z,29.85
2018-03-29T22:54:13.214Z,28.15
2018-03-29T22:56:40.708Z,31.77
2018-03-29T22:59:08.198Z,34.05
2018-03-29T23:01:36.533Z,37.63
2018-03-29T23:04:04.014Z,41.55
2018-03-29T23:06:32.257Z,44.15
2018-03-29T23:08:59.755Z,36.78
2018-03-29T23:11:28.004Z,32.55
2018-03-29T23:13:55.490Z,32.17
2018-03-29T23:16:22.973Z,33.95
2018-03-29T23:18:50.470Z,36.78
2018-03-29T23:21:17.937Z,34.60
2018-03-29T23:23:45.414Z,34.92
2018-03-29T23:26:13.658Z,35.60
2018-03-29T23:28:41.193Z,47.45
2018-03-29T23:31:08.662Z,48.50
2018-03-29T23:33:36.151Z,46.95
2018-03-29T23:36:04.391Z,54.00
2018-03-29T23:38:31.886Z,150.93
2018-03-29T23:41:00.128Z,104.10
2018-03-29T23:43:27.619Z,55.30
2018-03-29T23:45:55.091Z,74.50
2018-03-29T23:48:23.335Z,77.20
2018-03-29T23:50:50.915Z,64.20
2018-03-29T23:53:19.171Z,50.08
2018-03-29T23:55:46.650Z,43.33
2018-03-29T23:58:17.845Z,40.72
